Huntsville International Carl T Jones Field
KHSV : rendu visible

Aérodrome :











RETROUVEZ-NOUS SUR...

 
LOGIN :

S'inscrire | Disclaimer

   EN    FR    IT 

 









Légende :    VFR   VFR Marginal   IFR   IFR Intensif   IFR Très Intensif
Visi : 
Plafond : 
>= 8 km
>= 3000ft
5 à 8 km
1000 à 3000 ft
1500m à 5 km
500 à 1000 ft
800 à 1500m
200 à 500 ft
< 800m
< 200 ft
Symboles :   Orages  Brouillard  Fortes neiges  Fortes précipitations  Vent > 20 kt






- Altitude de l'aérodrome : 629 ft
- Code IATA : HSV


KHSV - Huntsville International Carl T Jones Field

DERNIER METAR :
  • 271253Z 12008KT 7SM -RA BKN017 OVC028 19/18 A2998 RMK AO2 SLP145 P0001 T01940183

METARs EXPIRÉS :
  • 271153Z 12009KT 10SM -RA BKN016 OVC035 19/18 A2997 RMK AO2 RAB08 SLP144 P0000 60001 70031 T01940183 10194 20189 53009
  • 271053Z 12009KT 10SM FEW018 OVC036 19/18 A2996 RMK AO2 RAB28E38 SLP141 P0000 T01940183
  • 271030Z AUTO 12009KT 10SM -RA FEW019 BKN036 OVC043 19/18 A2995 RMK AO2 RAB28 P0000 T01940183

TAF KHSV
Valide du 27 à 12h jusqu'au 28 à 12h UTC


271120Z 2712/2812 13008KT 6SM -SHRA SCT015 BKN030
FM271700 14010KT 6SM -SHRA SCT010 BKN020
FM272000 12012KT 6SM SHRA VCTS SCT025CB BKN040
PROB30 2721/2801 VRB15G30KT 3SM TSRA BKN010CB OVC025
FM280200 11006KT P6SM -SHRA SCT015 OVC025
FM280800 14004KT P6SM SCT007 BKN015
FIR KZME / Amérique du Nord



MET'MAP, la Météo Aéronautique d'un coup d'oeil ! - Copyright ORBIFLY Décembre 2007 - Disclaimer

ORBIFLY MET'MAP TEAM :

Programmation & Développement : Alexandra Zaïnal
Sur une idée originale de : Baudouin d'Aumeries
Assistance à la programmation : Marc-Olivier Méhu
Soutien technique & logistique : Manuel Goepfert

Contact : metmap@orbifly.com




SOURCES & CREDITS :

   NOAA       Earth
Advisory